sensor_id;sensor_type;location;lat;lon;timestamp;P1;durP1;ratioP1;P2;durP2;ratioP2
6689;SDS011;3382;51.576;8.076;2022-08-21T00:01:14;10.30;;;6.10;;
6689;SDS011;3382;51.576;8.076;2022-08-21T00:03:45;10.33;;;6.27;;
6689;SDS011;3382;51.576;8.076;2022-08-21T00:06:11;9.10;;;6.13;;
6689;SDS011;3382;51.576;8.076;2022-08-21T00:08:37;6.73;;;5.07;;
6689;SDS011;3382;51.576;8.076;2022-08-21T00:11:03;10.20;;;6.23;;
6689;SDS011;3382;51.576;8.076;2022-08-21T00:13:31;12.07;;;5.50;;
6689;SDS011;3382;51.576;8.076;2022-08-21T00:15:57;8.83;;;5.77;;
6689;SDS011;3382;51.576;8.076;2022-08-21T00:18:24;9.43;;;6.00;;
6689;SDS011;3382;51.576;8.076;2022-08-21T00:20:49;13.50;;;5.50;;
6689;SDS011;3382;51.576;8.076;2022-08-21T00:23:15;12.03;;;6.10;;
6689;SDS011;3382;51.576;8.076;2022-08-21T00:25:41;11.70;;;6.00;;
6689;SDS011;3382;51.576;8.076;2022-08-21T00:28:08;9.27;;;5.70;;
6689;SDS011;3382;51.576;8.076;2022-08-21T00:30:34;9.93;;;5.83;;
6689;SDS011;3382;51.576;8.076;2022-08-21T00:33:00;7.23;;;5.73;;
6689;SDS011;3382;51.576;8.076;2022-08-21T00:35:28;9.37;;;5.40;;
6689;SDS011;3382;51.576;8.076;2022-08-21T00:37:58;9.60;;;5.93;;
6689;SDS011;3382;51.576;8.076;2022-08-21T00:40:29;15.97;;;5.83;;
6689;SDS011;3382;51.576;8.076;2022-08-21T00:43:07;6.27;;;5.17;;
6689;SDS011;3382;51.576;8.076;2022-08-21T00:45:35;11.27;;;5.37;;
6689;SDS011;3382;51.576;8.076;2022-08-21T00:48:01;7.63;;;5.73;;
6689;SDS011;3382;51.576;8.076;2022-08-21T00:50:28;10.83;;;6.23;;
6689;SDS011;3382;51.576;8.076;2022-08-21T00:52:56;10.03;;;6.00;;
6689;SDS011;3382;51.576;8.076;2022-08-21T00:55:23;9.33;;;5.60;;
6689;SDS011;3382;51.576;8.076;2022-08-21T00:57:51;8.10;;;5.50;;
6689;SDS011;3382;51.576;8.076;2022-08-21T01:00:21;8.77;;;5.93;;
6689;SDS011;3382;51.576;8.076;2022-08-21T01:02:53;9.50;;;5.63;;
6689;SDS011;3382;51.576;8.076;2022-08-21T01:05:20;11.83;;;5.53;;
6689;SDS011;3382;51.576;8.076;2022-08-21T01:07:46;7.40;;;5.50;;
6689;SDS011;3382;51.576;8.076;2022-08-21T01:10:12;12.53;;;5.73;;
6689;SDS011;3382;51.576;8.076;2022-08-21T01:12:38;10.40;;;5.97;;
6689;SDS011;3382;51.576;8.076;2022-08-21T01:15:05;10.70;;;6.10;;
6689;SDS011;3382;51.576;8.076;2022-08-21T01:17:32;11.90;;;6.07;;
6689;SDS011;3382;51.576;8.076;2022-08-21T01:19:59;7.87;;;5.70;;
6689;SDS011;3382;51.576;8.076;2022-08-21T01:22:26;13.20;;;5.97;;
6689;SDS011;3382;51.576;8.076;2022-08-21T01:24:52;8.90;;;5.40;;
6689;SDS011;3382;51.576;8.076;2022-08-21T01:27:17;10.40;;;5.83;;
6689;SDS011;3382;51.576;8.076;2022-08-21T01:32:38;10.60;;;6.80;;
6689;SDS011;3382;51.576;8.076;2022-08-21T01:35:05;15.73;;;6.67;;
6689;SDS011;3382;51.576;8.076;2022-08-21T01:37:31;14.53;;;6.07;;
6689;SDS011;3382;51.576;8.076;2022-08-21T01:39:56;11.73;;;5.70;;
6689;SDS011;3382;51.576;8.076;2022-08-21T01:42:22;8.77;;;5.70;;
6689;SDS011;3382;51.576;8.076;2022-08-21T01:44:48;11.40;;;5.90;;
6689;SDS011;3382;51.576;8.076;2022-08-21T01:47:13;10.07;;;5.83;;
6689;SDS011;3382;51.576;8.076;2022-08-21T01:49:40;8.17;;;5.37;;
6689;SDS011;3382;51.576;8.076;2022-08-21T01:52:07;11.37;;;5.50;;
6689;SDS011;3382;51.576;8.076;2022-08-21T01:54:33;9.37;;;6.07;;
6689;SDS011;3382;51.576;8.076;2022-08-21T01:56:59;7.63;;;5.33;;
6689;SDS011;3382;51.576;8.076;2022-08-21T01:59:25;11.80;;;5.93;;
6689;SDS011;3382;51.576;8.076;2022-08-21T02:01:51;9.37;;;5.70;;
6689;SDS011;3382;51.576;8.076;2022-08-21T02:04:19;11.77;;;5.93;;
6689;SDS011;3382;51.576;8.076;2022-08-21T02:06:45;9.67;;;5.37;;
6689;SDS011;3382;51.576;8.076;2022-08-21T02:09:11;8.43;;;5.33;;
6689;SDS011;3382;51.576;8.076;2022-08-21T02:11:39;7.53;;;5.20;;
6689;SDS011;3382;51.576;8.076;2022-08-21T02:14:12;10.40;;;5.30;;
6689;SDS011;3382;51.576;8.076;2022-08-21T02:16:39;9.20;;;5.43;;
6689;SDS011;3382;51.576;8.076;2022-08-21T02:19:06;9.13;;;5.73;;
6689;SDS011;3382;51.576;8.076;2022-08-21T02:21:32;10.20;;;4.47;;
6689;SDS011;3382;51.576;8.076;2022-08-21T02:23:57;12.40;;;5.60;;
6689;SDS011;3382;51.576;8.076;2022-08-21T02:26:23;9.00;;;4.83;;
6689;SDS011;3382;51.576;8.076;2022-08-21T02:28:49;10.30;;;4.57;;
6689;SDS011;3382;51.576;8.076;2022-08-21T02:31:14;10.73;;;4.90;;
6689;SDS011;3382;51.576;8.076;2022-08-21T02:33:40;10.60;;;4.90;;
6689;SDS011;3382;51.576;8.076;2022-08-21T02:36:07;11.97;;;5.73;;
6689;SDS011;3382;51.576;8.076;2022-08-21T02:38:34;11.80;;;5.60;;
6689;SDS011;3382;51.576;8.076;2022-08-21T02:41:06;11.50;;;5.10;;
6689;SDS011;3382;51.576;8.076;2022-08-21T02:43:34;9.90;;;5.00;;
6689;SDS011;3382;51.576;8.076;2022-08-21T02:46:01;7.23;;;4.87;;
6689;SDS011;3382;51.576;8.076;2022-08-21T02:48:29;14.70;;;5.43;;
6689;SDS011;3382;51.576;8.076;2022-08-21T02:50:57;10.97;;;5.30;;
6689;SDS011;3382;51.576;8.076;2022-08-21T02:53:29;11.17;;;5.37;;
6689;SDS011;3382;51.576;8.076;2022-08-21T02:55:57;12.47;;;5.33;;
6689;SDS011;3382;51.576;8.076;2022-08-21T02:58:26;10.80;;;5.07;;
6689;SDS011;3382;51.576;8.076;2022-08-21T03:00:53;10.57;;;5.23;;
6689;SDS011;3382;51.576;8.076;2022-08-21T03:03:19;12.70;;;5.30;;
6689;SDS011;3382;51.576;8.076;2022-08-21T03:05:46;10.43;;;5.03;;
6689;SDS011;3382;51.576;8.076;2022-08-21T03:08:13;9.90;;;4.40;;
6689;SDS011;3382;51.576;8.076;2022-08-21T03:10:41;8.87;;;4.70;;
6689;SDS011;3382;51.576;8.076;2022-08-21T03:13:09;8.20;;;4.80;;
6689;SDS011;3382;51.576;8.076;2022-08-21T03:15:36;9.20;;;5.50;;
6689;SDS011;3382;51.576;8.076;2022-08-21T03:18:03;11.43;;;5.47;;
6689;SDS011;3382;51.576;8.076;2022-08-21T03:20:29;13.37;;;5.53;;
6689;SDS011;3382;51.576;8.076;2022-08-21T03:22:56;11.07;;;5.57;;
6689;SDS011;3382;51.576;8.076;2022-08-21T03:25:22;8.03;;;5.23;;
6689;SDS011;3382;51.576;8.076;2022-08-21T03:27:49;10.17;;;5.60;;
6689;SDS011;3382;51.576;8.076;2022-08-21T03:30:15;11.07;;;5.03;;
6689;SDS011;3382;51.576;8.076;2022-08-21T03:32:43;6.87;;;4.90;;
6689;SDS011;3382;51.576;8.076;2022-08-21T03:35:09;11.30;;;5.07;;
6689;SDS011;3382;51.576;8.076;2022-08-21T03:37:35;10.50;;;5.83;;
6689;SDS011;3382;51.576;8.076;2022-08-21T03:40:02;9.67;;;5.37;;
6689;SDS011;3382;51.576;8.076;2022-08-21T03:42:32;13.27;;;5.43;;
6689;SDS011;3382;51.576;8.076;2022-08-21T03:44:58;9.20;;;5.40;;
6689;SDS011;3382;51.576;8.076;2022-08-21T03:47:23;12.23;;;5.33;;
6689;SDS011;3382;51.576;8.076;2022-08-21T03:49:49;8.93;;;4.87;;
6689;SDS011;3382;51.576;8.076;2022-08-21T03:52:15;10.00;;;5.13;;
6689;SDS011;3382;51.576;8.076;2022-08-21T03:54:41;10.27;;;4.60;;
6689;SDS011;3382;51.576;8.076;2022-08-21T03:57:08;7.63;;;4.50;;
6689;SDS011;3382;51.576;8.076;2022-08-21T03:59:35;12.37;;;5.93;;
6689;SDS011;3382;51.576;8.076;2022-08-21T04:02:01;10.13;;;5.60;;
6689;SDS011;3382;51.576;8.076;2022-08-21T04:04:30;10.07;;;5.70;;
6689;SDS011;3382;51.576;8.076;2022-08-21T04:06:56;8.60;;;4.80;;
6689;SDS011;3382;51.576;8.076;2022-08-21T04:09:22;9.00;;;5.50;;
6689;SDS011;3382;51.576;8.076;2022-08-21T04:11:49;9.40;;;5.07;;
6689;SDS011;3382;51.576;8.076;2022-08-21T04:14:15;8.83;;;5.00;;
6689;SDS011;3382;51.576;8.076;2022-08-21T04:16:42;9.57;;;5.80;;
6689;SDS011;3382;51.576;8.076;2022-08-21T04:19:08;13.80;;;6.13;;
6689;SDS011;3382;51.576;8.076;2022-08-21T04:21:38;10.23;;;5.93;;
6689;SDS011;3382;51.576;8.076;2022-08-21T04:24:05;11.00;;;6.20;;
6689;SDS011;3382;51.576;8.076;2022-08-21T04:26:32;12.47;;;5.37;;
6689;SDS011;3382;51.576;8.076;2022-08-21T04:28:59;7.90;;;5.50;;
6689;SDS011;3382;51.576;8.076;2022-08-21T04:31:25;10.90;;;5.57;;
6689;SDS011;3382;51.576;8.076;2022-08-21T04:33:53;8.87;;;5.00;;
6689;SDS011;3382;51.576;8.076;2022-08-21T04:36:18;11.57;;;5.20;;
6689;SDS011;3382;51.576;8.076;2022-08-21T04:38:44;8.87;;;5.30;;
6689;SDS011;3382;51.576;8.076;2022-08-21T04:41:09;10.03;;;5.73;;
6689;SDS011;3382;51.576;8.076;2022-08-21T04:43:36;11.23;;;5.53;;
6689;SDS011;3382;51.576;8.076;2022-08-21T04:46:03;14.50;;;5.47;;
6689;SDS011;3382;51.576;8.076;2022-08-21T04:48:29;8.97;;;5.53;;
6689;SDS011;3382;51.576;8.076;2022-08-21T04:50:58;7.80;;;5.77;;
6689;SDS011;3382;51.576;8.076;2022-08-21T04:56:00;12.27;;;5.40;;
6689;SDS011;3382;51.576;8.076;2022-08-21T04:58:33;8.73;;;6.00;;
6689;SDS011;3382;51.576;8.076;2022-08-21T05:00:59;9.37;;;5.07;;
6689;SDS011;3382;51.576;8.076;2022-08-21T05:03:26;9.50;;;5.50;;
6689;SDS011;3382;51.576;8.076;2022-08-21T05:05:53;9.07;;;5.73;;
6689;SDS011;3382;51.576;8.076;2022-08-21T05:08:20;9.67;;;4.83;;
6689;SDS011;3382;51.576;8.076;2022-08-21T05:10:48;7.47;;;5.13;;
6689;SDS011;3382;51.576;8.076;2022-08-21T05:13:14;9.17;;;5.40;;
6689;SDS011;3382;51.576;8.076;2022-08-21T05:15:40;2.40;;;1.70;;
6689;SDS011;3382;51.576;8.076;2022-08-21T05:18:07;4.33;;;2.67;;
6689;SDS011;3382;51.576;8.076;2022-08-21T05:20:33;3.40;;;3.10;;
6689;SDS011;3382;51.576;8.076;2022-08-21T05:23:00;4.43;;;2.97;;
6689;SDS011;3382;51.576;8.076;2022-08-21T05:25:26;4.03;;;3.20;;
6689;SDS011;3382;51.576;8.076;2022-08-21T05:27:52;4.83;;;3.00;;
6689;SDS011;3382;51.576;8.076;2022-08-21T05:30:18;6.23;;;3.03;;
6689;SDS011;3382;51.576;8.076;2022-08-21T05:32:45;6.53;;;2.93;;
6689;SDS011;3382;51.576;8.076;2022-08-21T05:35:12;3.20;;;2.40;;
6689;SDS011;3382;51.576;8.076;2022-08-21T05:37:38;3.60;;;2.47;;
6689;SDS011;3382;51.576;8.076;2022-08-21T05:40:04;4.20;;;2.50;;
6689;SDS011;3382;51.576;8.076;2022-08-21T05:42:32;4.63;;;2.67;;
6689;SDS011;3382;51.576;8.076;2022-08-21T05:44:58;3.53;;;2.40;;
6689;SDS011;3382;51.576;8.076;2022-08-21T05:47:24;3.97;;;2.53;;
6689;SDS011;3382;51.576;8.076;2022-08-21T05:49:50;3.87;;;2.30;;
6689;SDS011;3382;51.576;8.076;2022-08-21T05:52:21;3.23;;;2.10;;
6689;SDS011;3382;51.576;8.076;2022-08-21T05:54:48;9.33;;;2.80;;
6689;SDS011;3382;51.576;8.076;2022-08-21T05:57:14;3.90;;;2.10;;
6689;SDS011;3382;51.576;8.076;2022-08-21T05:59:40;4.43;;;3.30;;
6689;SDS011;3382;51.576;8.076;2022-08-21T06:02:06;7.63;;;3.70;;
6689;SDS011;3382;51.576;8.076;2022-08-21T06:04:36;8.33;;;3.73;;
6689;SDS011;3382;51.576;8.076;2022-08-21T06:07:02;6.33;;;3.37;;
6689;SDS011;3382;51.576;8.076;2022-08-21T06:09:29;10.07;;;3.80;;
6689;SDS011;3382;51.576;8.076;2022-08-21T06:11:54;7.33;;;3.77;;
6689;SDS011;3382;51.576;8.076;2022-08-21T06:14:20;6.27;;;3.70;;
6689;SDS011;3382;51.576;8.076;2022-08-21T06:16:45;6.80;;;3.00;;
6689;SDS011;3382;51.576;8.076;2022-08-21T06:19:11;7.57;;;3.40;;
6689;SDS011;3382;51.576;8.076;2022-08-21T06:21:37;10.47;;;3.93;;
6689;SDS011;3382;51.576;8.076;2022-08-21T06:24:03;6.00;;;3.63;;
6689;SDS011;3382;51.576;8.076;2022-08-21T06:26:30;8.20;;;3.23;;
6689;SDS011;3382;51.576;8.076;2022-08-21T06:28:56;9.23;;;3.50;;
6689;SDS011;3382;51.576;8.076;2022-08-21T06:31:22;9.93;;;3.50;;
6689;SDS011;3382;51.576;8.076;2022-08-21T06:33:49;7.23;;;3.50;;
6689;SDS011;3382;51.576;8.076;2022-08-21T06:36:18;3.37;;;2.20;;
6689;SDS011;3382;51.576;8.076;2022-08-21T06:38:45;6.03;;;2.30;;
6689;SDS011;3382;51.576;8.076;2022-08-21T06:41:10;3.23;;;2.20;;
6689;SDS011;3382;51.576;8.076;2022-08-21T06:43:36;9.07;;;3.50;;
6689;SDS011;3382;51.576;8.076;2022-08-21T06:46:02;5.40;;;2.63;;
6689;SDS011;3382;51.576;8.076;2022-08-21T06:48:28;6.53;;;2.60;;
6689;SDS011;3382;51.576;8.076;2022-08-21T06:50:56;6.00;;;3.40;;
6689;SDS011;3382;51.576;8.076;2022-08-21T06:53:24;8.53;;;3.30;;
6689;SDS011;3382;51.576;8.076;2022-08-21T06:55:49;5.37;;;2.63;;
6689;SDS011;3382;51.576;8.076;2022-08-21T06:58:15;3.63;;;2.53;;
6689;SDS011;3382;51.576;8.076;2022-08-21T07:00:42;3.43;;;2.20;;
6689;SDS011;3382;51.576;8.076;2022-08-21T07:03:23;5.57;;;2.40;;
6689;SDS011;3382;51.576;8.076;2022-08-21T07:05:52;5.17;;;2.70;;
6689;SDS011;3382;51.576;8.076;2022-08-21T07:08:18;6.50;;;2.43;;
6689;SDS011;3382;51.576;8.076;2022-08-21T07:10:45;5.50;;;2.60;;
6689;SDS011;3382;51.576;8.076;2022-08-21T07:13:11;7.43;;;2.83;;
6689;SDS011;3382;51.576;8.076;2022-08-21T07:15:37;3.27;;;1.90;;
6689;SDS011;3382;51.576;8.076;2022-08-21T07:18:02;5.33;;;2.13;;
6689;SDS011;3382;51.576;8.076;2022-08-21T07:20:29;6.47;;;1.97;;
6689;SDS011;3382;51.576;8.076;2022-08-21T07:22:56;4.73;;;2.33;;
6689;SDS011;3382;51.576;8.076;2022-08-21T07:25:26;5.77;;;1.70;;
6689;SDS011;3382;51.576;8.076;2022-08-21T07:27:51;5.87;;;3.03;;
6689;SDS011;3382;51.576;8.076;2022-08-21T07:30:17;7.60;;;3.13;;
6689;SDS011;3382;51.576;8.076;2022-08-21T07:32:43;8.50;;;2.77;;
6689;SDS011;3382;51.576;8.076;2022-08-21T07:35:09;6.43;;;2.57;;
6689;SDS011;3382;51.576;8.076;2022-08-21T07:37:34;4.37;;;2.70;;
6689;SDS011;3382;51.576;8.076;2022-08-21T07:40:00;5.13;;;2.20;;
6689;SDS011;3382;51.576;8.076;2022-08-21T07:42:25;5.03;;;2.63;;
6689;SDS011;3382;51.576;8.076;2022-08-21T07:44:51;5.90;;;3.00;;
6689;SDS011;3382;51.576;8.076;2022-08-21T07:47:17;4.53;;;2.63;;
6689;SDS011;3382;51.576;8.076;2022-08-21T07:49:42;5.57;;;2.63;;
6689;SDS011;3382;51.576;8.076;2022-08-21T07:52:08;4.43;;;1.83;;
6689;SDS011;3382;51.576;8.076;2022-08-21T07:54:34;4.43;;;1.70;;
6689;SDS011;3382;51.576;8.076;2022-08-21T07:57:00;6.57;;;2.23;;
6689;SDS011;3382;51.576;8.076;2022-08-21T07:59:26;3.90;;;2.10;;
6689;SDS011;3382;51.576;8.076;2022-08-21T08:01:51;3.17;;;2.07;;
6689;SDS011;3382;51.576;8.076;2022-08-21T08:04:17;5.87;;;2.30;;
6689;SDS011;3382;51.576;8.076;2022-08-21T08:06:42;5.67;;;1.83;;
6689;SDS011;3382;51.576;8.076;2022-08-21T08:09:08;3.23;;;1.80;;
6689;SDS011;3382;51.576;8.076;2022-08-21T08:11:34;5.47;;;2.27;;
6689;SDS011;3382;51.576;8.076;2022-08-21T08:14:02;4.53;;;1.83;;
6689;SDS011;3382;51.576;8.076;2022-08-21T08:16:28;6.07;;;2.20;;
6689;SDS011;3382;51.576;8.076;2022-08-21T08:18:54;11.53;;;3.67;;
6689;SDS011;3382;51.576;8.076;2022-08-21T08:21:20;8.27;;;3.00;;
6689;SDS011;3382;51.576;8.076;2022-08-21T08:23:46;5.77;;;2.67;;
6689;SDS011;3382;51.576;8.076;2022-08-21T08:26:12;5.20;;;2.43;;
6689;SDS011;3382;51.576;8.076;2022-08-21T08:28:38;5.83;;;2.03;;
6689;SDS011;3382;51.576;8.076;2022-08-21T08:31:03;11.70;;;2.53;;
6689;SDS011;3382;51.576;8.076;2022-08-21T08:33:29;5.67;;;2.47;;
6689;SDS011;3382;51.576;8.076;2022-08-21T08:35:55;6.90;;;2.17;;
6689;SDS011;3382;51.576;8.076;2022-08-21T08:38:22;5.27;;;2.10;;
6689;SDS011;3382;51.576;8.076;2022-08-21T08:43:27;7.77;;;2.10;;
6689;SDS011;3382;51.576;8.076;2022-08-21T08:45:55;6.23;;;1.70;;
6689;SDS011;3382;51.576;8.076;2022-08-21T08:51:08;5.13;;;2.00;;
6689;SDS011;3382;51.576;8.076;2022-08-21T08:53:52;7.57;;;1.90;;
6689;SDS011;3382;51.576;8.076;2022-08-21T08:56:27;6.63;;;2.10;;
6689;SDS011;3382;51.576;8.076;2022-08-21T08:59:00;2.23;;;1.30;;
6689;SDS011;3382;51.576;8.076;2022-08-21T09:01:32;2.53;;;1.40;;
6689;SDS011;3382;51.576;8.076;2022-08-21T09:03:57;4.13;;;1.50;;
6689;SDS011;3382;51.576;8.076;2022-08-21T09:09:18;7.00;;;1.70;;
6689;SDS011;3382;51.576;8.076;2022-08-21T09:20:32;24.90;;;7.03;;
6689;SDS011;3382;51.576;8.076;2022-08-21T09:23:31;6.67;;;2.57;;
6689;SDS011;3382;51.576;8.076;2022-08-21T09:26:12;9.70;;;3.77;;
6689;SDS011;3382;51.576;8.076;2022-08-21T09:28:43;9.77;;;3.50;;
6689;SDS011;3382;51.576;8.076;2022-08-21T09:31:29;9.87;;;3.40;;
6689;SDS011;3382;51.576;8.076;2022-08-21T09:34:00;9.87;;;3.80;;
6689;SDS011;3382;51.576;8.076;2022-08-21T09:39:09;8.17;;;2.60;;
6689;SDS011;3382;51.576;8.076;2022-08-21T09:41:36;14.17;;;2.60;;
6689;SDS011;3382;51.576;8.076;2022-08-21T09:44:03;5.17;;;2.27;;
6689;SDS011;3382;51.576;8.076;2022-08-21T09:46:30;8.70;;;2.53;;
6689;SDS011;3382;51.576;8.076;2022-08-21T09:49:00;4.60;;;2.43;;
6689;SDS011;3382;51.576;8.076;2022-08-21T09:51:27;8.77;;;2.67;;
6689;SDS011;3382;51.576;8.076;2022-08-21T09:56:32;2.93;;;1.73;;
6689;SDS011;3382;51.576;8.076;2022-08-21T09:59:28;5.73;;;2.20;;
6689;SDS011;3382;51.576;8.076;2022-08-21T10:01:58;8.07;;;2.03;;
6689;SDS011;3382;51.576;8.076;2022-08-21T10:04:33;4.70;;;1.73;;
6689;SDS011;3382;51.576;8.076;2022-08-21T10:07:08;3.97;;;1.90;;
6689;SDS011;3382;51.576;8.076;2022-08-21T10:09:34;4.43;;;1.93;;
6689;SDS011;3382;51.576;8.076;2022-08-21T10:15:13;3.27;;;1.80;;
6689;SDS011;3382;51.576;8.076;2022-08-21T10:20:20;7.37;;;2.07;;
6689;SDS011;3382;51.576;8.076;2022-08-21T10:25:42;7.03;;;1.90;;
6689;SDS011;3382;51.576;8.076;2022-08-21T10:31:02;7.73;;;2.57;;
6689;SDS011;3382;51.576;8.076;2022-08-21T10:33:41;5.13;;;2.03;;
6689;SDS011;3382;51.576;8.076;2022-08-21T10:36:29;6.73;;;3.30;;
6689;SDS011;3382;51.576;8.076;2022-08-21T10:41:50;9.03;;;3.60;;
6689;SDS011;3382;51.576;8.076;2022-08-21T10:47:09;6.47;;;2.20;;
6689;SDS011;3382;51.576;8.076;2022-08-21T10:57:50;20.17;;;12.03;;
6689;SDS011;3382;51.576;8.076;2022-08-21T11:00:26;35.37;;;22.03;;
6689;SDS011;3382;51.576;8.076;2022-08-21T11:03:03;15.77;;;9.70;;
6689;SDS011;3382;51.576;8.076;2022-08-21T11:05:32;15.97;;;6.53;;
6689;SDS011;3382;51.576;8.076;2022-08-21T11:13:13;5.77;;;2.57;;
6689;SDS011;3382;51.576;8.076;2022-08-21T11:18:49;3.83;;;1.80;;
6689;SDS011;3382;51.576;8.076;2022-08-21T11:26:44;6.07;;;2.10;;
6689;SDS011;3382;51.576;8.076;2022-08-21T11:29:48;3.07;;;1.77;;
6689;SDS011;3382;51.576;8.076;2022-08-21T11:43:40;3.87;;;1.70;;
6689;SDS011;3382;51.576;8.076;2022-08-21T11:49:46;4.93;;;1.93;;
6689;SDS011;3382;51.576;8.076;2022-08-21T11:54:48;7.77;;;4.43;;
6689;SDS011;3382;51.576;8.076;2022-08-21T11:57:24;5.63;;;2.20;;
6689;SDS011;3382;51.576;8.076;2022-08-21T12:00:22;6.73;;;2.27;;
6689;SDS011;3382;51.576;8.076;2022-08-21T12:02:56;7.77;;;2.37;;
6689;SDS011;3382;51.576;8.076;2022-08-21T12:05:33;5.63;;;2.00;;
6689;SDS011;3382;51.576;8.076;2022-08-21T12:08:15;3.97;;;1.50;;
6689;SDS011;3382;51.576;8.076;2022-08-21T12:13:39;2.20;;;1.30;;
6689;SDS011;3382;51.576;8.076;2022-08-21T12:21:48;5.87;;;1.70;;
6689;SDS011;3382;51.576;8.076;2022-08-21T12:27:14;4.90;;;1.50;;
6689;SDS011;3382;51.576;8.076;2022-08-21T12:30:04;5.17;;;2.17;;
6689;SDS011;3382;51.576;8.076;2022-08-21T12:32:46;8.17;;;2.60;;
6689;SDS011;3382;51.576;8.076;2022-08-21T12:35:37;5.43;;;2.20;;
6689;SDS011;3382;51.576;8.076;2022-08-21T12:38:18;3.43;;;1.33;;
6689;SDS011;3382;51.576;8.076;2022-08-21T12:40:52;3.87;;;1.20;;
6689;SDS011;3382;51.576;8.076;2022-08-21T12:43:27;4.93;;;1.67;;
6689;SDS011;3382;51.576;8.076;2022-08-21T12:46:05;3.17;;;1.57;;
6689;SDS011;3382;51.576;8.076;2022-08-21T12:48:33;6.80;;;1.60;;
6689;SDS011;3382;51.576;8.076;2022-08-21T12:53:44;3.80;;;1.90;;
6689;SDS011;3382;51.576;8.076;2022-08-21T12:56:17;3.13;;;1.50;;
6689;SDS011;3382;51.576;8.076;2022-08-21T12:58:55;3.83;;;1.83;;
6689;SDS011;3382;51.576;8.076;2022-08-21T13:04:01;4.87;;;1.57;;
6689;SDS011;3382;51.576;8.076;2022-08-21T13:06:32;5.93;;;1.80;;
6689;SDS011;3382;51.576;8.076;2022-08-21T13:09:07;4.57;;;1.63;;
6689;SDS011;3382;51.576;8.076;2022-08-21T13:11:37;5.23;;;1.60;;
6689;SDS011;3382;51.576;8.076;2022-08-21T13:14:05;2.90;;;1.30;;
6689;SDS011;3382;51.576;8.076;2022-08-21T13:16:38;3.97;;;1.57;;
6689;SDS011;3382;51.576;8.076;2022-08-21T13:19:06;4.50;;;1.50;;
6689;SDS011;3382;51.576;8.076;2022-08-21T13:21:35;2.77;;;1.47;;
6689;SDS011;3382;51.576;8.076;2022-08-21T13:26:50;3.00;;;1.77;;
6689;SDS011;3382;51.576;8.076;2022-08-21T13:29:18;2.77;;;1.30;;
6689;SDS011;3382;51.576;8.076;2022-08-21T13:31:47;3.83;;;1.67;;
6689;SDS011;3382;51.576;8.076;2022-08-21T13:34:16;4.73;;;1.70;;
6689;SDS011;3382;51.576;8.076;2022-08-21T13:36:44;3.80;;;1.50;;
6689;SDS011;3382;51.576;8.076;2022-08-21T13:39:11;2.13;;;1.30;;
6689;SDS011;3382;51.576;8.076;2022-08-21T13:41:41;4.17;;;1.70;;
6689;SDS011;3382;51.576;8.076;2022-08-21T13:44:19;1.47;;;1.10;;
6689;SDS011;3382;51.576;8.076;2022-08-21T13:46:47;2.07;;;0.90;;
6689;SDS011;3382;51.576;8.076;2022-08-21T13:49:16;2.60;;;1.50;;
6689;SDS011;3382;51.576;8.076;2022-08-21T13:51:44;3.90;;;1.40;;
6689;SDS011;3382;51.576;8.076;2022-08-21T13:54:25;4.87;;;1.60;;
6689;SDS011;3382;51.576;8.076;2022-08-21T13:56:53;2.97;;;1.50;;
6689;SDS011;3382;51.576;8.076;2022-08-21T13:59:26;3.50;;;1.20;;
6689;SDS011;3382;51.576;8.076;2022-08-21T14:01:55;2.60;;;1.27;;
6689;SDS011;3382;51.576;8.076;2022-08-21T14:04:25;4.73;;;1.20;;
6689;SDS011;3382;51.576;8.076;2022-08-21T14:07:02;5.23;;;1.30;;
6689;SDS011;3382;51.576;8.076;2022-08-21T14:09:44;4.47;;;1.40;;
6689;SDS011;3382;51.576;8.076;2022-08-21T14:14:49;3.23;;;1.33;;
6689;SDS011;3382;51.576;8.076;2022-08-21T14:17:26;3.40;;;1.13;;
6689;SDS011;3382;51.576;8.076;2022-08-21T14:19:53;3.00;;;1.20;;
6689;SDS011;3382;51.576;8.076;2022-08-21T14:24:48;2.60;;;1.10;;
6689;SDS011;3382;51.576;8.076;2022-08-21T14:27:16;4.67;;;1.33;;
6689;SDS011;3382;51.576;8.076;2022-08-21T14:29:44;2.20;;;1.17;;
6689;SDS011;3382;51.576;8.076;2022-08-21T14:32:20;2.20;;;1.50;;
6689;SDS011;3382;51.576;8.076;2022-08-21T14:34:47;2.00;;;1.23;;
6689;SDS011;3382;51.576;8.076;2022-08-21T14:37:13;2.60;;;1.10;;
6689;SDS011;3382;51.576;8.076;2022-08-21T14:39:38;3.70;;;0.90;;
6689;SDS011;3382;51.576;8.076;2022-08-21T14:42:04;1.90;;;1.00;;
6689;SDS011;3382;51.576;8.076;2022-08-21T14:44:30;4.60;;;1.00;;
6689;SDS011;3382;51.576;8.076;2022-08-21T14:46:58;2.17;;;1.13;;
6689;SDS011;3382;51.576;8.076;2022-08-21T14:49:24;2.40;;;0.93;;
6689;SDS011;3382;51.576;8.076;2022-08-21T14:51:51;1.87;;;0.97;;
6689;SDS011;3382;51.576;8.076;2022-08-21T14:54:21;2.27;;;1.10;;
6689;SDS011;3382;51.576;8.076;2022-08-21T14:56:48;2.43;;;1.20;;
6689;SDS011;3382;51.576;8.076;2022-08-21T14:59:15;4.70;;;1.17;;
6689;SDS011;3382;51.576;8.076;2022-08-21T15:01:41;3.13;;;1.03;;
6689;SDS011;3382;51.576;8.076;2022-08-21T15:04:07;2.87;;;1.30;;
6689;SDS011;3382;51.576;8.076;2022-08-21T15:06:33;2.97;;;1.10;;
6689;SDS011;3382;51.576;8.076;2022-08-21T15:08:58;2.67;;;1.30;;
6689;SDS011;3382;51.576;8.076;2022-08-21T15:11:24;1.67;;;0.93;;
6689;SDS011;3382;51.576;8.076;2022-08-21T15:13:53;1.77;;;1.20;;
6689;SDS011;3382;51.576;8.076;2022-08-21T15:16:23;2.40;;;1.20;;
6689;SDS011;3382;51.576;8.076;2022-08-21T15:18:49;1.70;;;0.97;;
6689;SDS011;3382;51.576;8.076;2022-08-21T15:21:15;1.20;;;0.93;;
6689;SDS011;3382;51.576;8.076;2022-08-21T15:23:40;0.87;;;0.80;;
6689;SDS011;3382;51.576;8.076;2022-08-21T15:26:06;2.13;;;1.13;;
6689;SDS011;3382;51.576;8.076;2022-08-21T15:28:33;1.90;;;1.20;;
6689;SDS011;3382;51.576;8.076;2022-08-21T15:30:59;1.97;;;1.13;;
6689;SDS011;3382;51.576;8.076;2022-08-21T15:33:26;1.93;;;0.93;;
6689;SDS011;3382;51.576;8.076;2022-08-21T15:35:51;2.17;;;1.00;;
6689;SDS011;3382;51.576;8.076;2022-08-21T15:38:17;0.80;;;0.67;;
6689;SDS011;3382;51.576;8.076;2022-08-21T15:40:43;1.53;;;1.17;;
6689;SDS011;3382;51.576;8.076;2022-08-21T15:43:13;1.03;;;0.90;;
6689;SDS011;3382;51.576;8.076;2022-08-21T15:45:52;1.63;;;1.10;;
6689;SDS011;3382;51.576;8.076;2022-08-21T15:48:19;1.43;;;1.07;;
6689;SDS011;3382;51.576;8.076;2022-08-21T15:50:45;1.93;;;1.03;;
6689;SDS011;3382;51.576;8.076;2022-08-21T15:53:11;2.90;;;1.03;;
6689;SDS011;3382;51.576;8.076;2022-08-21T15:55:37;2.47;;;1.10;;
6689;SDS011;3382;51.576;8.076;2022-08-21T15:58:04;3.83;;;1.37;;
6689;SDS011;3382;51.576;8.076;2022-08-21T16:00:30;3.90;;;1.37;;
6689;SDS011;3382;51.576;8.076;2022-08-21T16:02:59;1.30;;;1.03;;
6689;SDS011;3382;51.576;8.076;2022-08-21T16:05:25;2.07;;;1.00;;
6689;SDS011;3382;51.576;8.076;2022-08-21T16:07:51;0.90;;;0.90;;
6689;SDS011;3382;51.576;8.076;2022-08-21T16:10:18;1.93;;;1.50;;
6689;SDS011;3382;51.576;8.076;2022-08-21T16:12:46;2.17;;;0.97;;
6689;SDS011;3382;51.576;8.076;2022-08-21T16:15:15;1.47;;;1.00;;
6689;SDS011;3382;51.576;8.076;2022-08-21T16:17:43;2.77;;;1.30;;
6689;SDS011;3382;51.576;8.076;2022-08-21T16:20:13;2.37;;;1.20;;
6689;SDS011;3382;51.576;8.076;2022-08-21T16:22:41;2.10;;;1.10;;
6689;SDS011;3382;51.576;8.076;2022-08-21T16:25:06;2.37;;;1.30;;
6689;SDS011;3382;51.576;8.076;2022-08-21T16:27:33;3.40;;;1.27;;
6689;SDS011;3382;51.576;8.076;2022-08-21T16:29:59;2.40;;;1.03;;
6689;SDS011;3382;51.576;8.076;2022-08-21T16:32:25;2.43;;;1.23;;
6689;SDS011;3382;51.576;8.076;2022-08-21T16:34:52;5.07;;;1.13;;
6689;SDS011;3382;51.576;8.076;2022-08-21T16:37:18;4.43;;;1.70;;
6689;SDS011;3382;51.576;8.076;2022-08-21T16:39:43;2.20;;;1.60;;
6689;SDS011;3382;51.576;8.076;2022-08-21T16:42:10;2.73;;;1.50;;
6689;SDS011;3382;51.576;8.076;2022-08-21T16:44:40;2.67;;;1.30;;
6689;SDS011;3382;51.576;8.076;2022-08-21T16:47:06;2.80;;;1.23;;
6689;SDS011;3382;51.576;8.076;2022-08-21T16:49:32;2.27;;;1.40;;
6689;SDS011;3382;51.576;8.076;2022-08-21T16:51:58;3.33;;;1.13;;
6689;SDS011;3382;51.576;8.076;2022-08-21T16:54:24;2.63;;;1.57;;
6689;SDS011;3382;51.576;8.076;2022-08-21T16:56:49;2.57;;;1.43;;
6689;SDS011;3382;51.576;8.076;2022-08-21T16:59:15;1.23;;;1.13;;
6689;SDS011;3382;51.576;8.076;2022-08-21T17:01:41;1.80;;;1.13;;
6689;SDS011;3382;51.576;8.076;2022-08-21T17:04:07;3.00;;;1.40;;
6689;SDS011;3382;51.576;8.076;2022-08-21T17:06:33;2.87;;;1.33;;
6689;SDS011;3382;51.576;8.076;2022-08-21T17:08:58;3.77;;;1.47;;